Terminal Aerodrome Forecast
Issued by NWS

Home | Current Version | Previous Version | Text Only | Print | Product List | Glossary On
Versions: 1 2 3 4 5 6 7 8 9 10 11 12 13 14 15
270
FTUS42 TJSJ 051815 AAA
TAFJBQ
TAF AMD
TJBQ 051815Z 0518/0618 05011KT P6SM VCTS FEW022CB BKN040
      TEMPO 0518/0520 4SM SHRA SCT015 BKN030
     FM052300 11007KT P6SM FEW030 BKN050 BKN090
     FM060300 15002KT P6SM FEW090
     FM061450 36005KT P6SM VCSH SCT025 SCT040=

USA.gov is the U.S. government's official web portal to all federal, state and local government web resources and services.